createdAt,value
2018-02-17T00:00:04.663Z,19.07
2018-02-17T00:02:32.600Z,16.47
2018-02-17T00:05:00.597Z,15.37
2018-02-17T00:07:28.547Z,15.57
2018-02-17T00:09:56.843Z,15.60
2018-02-17T00:12:24.893Z,23.90
2018-02-17T00:14:52.854Z,23.07
2018-02-17T00:17:20.775Z,18.10
2018-02-17T00:19:48.733Z,17.90
2018-02-17T00:22:16.760Z,17.90
2018-02-17T00:24:44.770Z,17.43
2018-02-17T00:27:12.760Z,17.77
2018-02-17T00:29:40.704Z,17.00
2018-02-17T00:32:08.651Z,15.93
2018-02-17T00:34:36.594Z,16.07
2018-02-17T00:37:04.586Z,15.10
2018-02-17T00:39:32.535Z,14.30
2018-02-17T00:42:00.472Z,14.40
2018-02-17T00:44:28.421Z,15.27
2018-02-17T00:46:56.387Z,14.93
2018-02-17T00:49:24.353Z,14.23
2018-02-17T00:51:52.301Z,12.70
2018-02-17T00:54:20.252Z,12.57
2018-02-17T00:56:48.214Z,13.10
2018-02-17T00:59:16.126Z,13.50
2018-02-17T01:01:43.992Z,14.00
2018-02-17T01:04:11.965Z,12.60
2018-02-17T01:06:39.919Z,13.53
2018-02-17T01:09:07.889Z,14.40
2018-02-17T01:11:36.607Z,14.53
2018-02-17T01:14:04.583Z,14.60
2018-02-17T01:16:32.645Z,14.33
2018-02-17T01:19:00.616Z,14.33
2018-02-17T01:21:28.555Z,13.10
2018-02-17T01:23:56.682Z,12.90
2018-02-17T01:26:24.630Z,12.53
2018-02-17T01:28:52.555Z,12.90
2018-02-17T01:31:20.431Z,13.90
2018-02-17T01:33:48.447Z,14.33
2018-02-17T01:36:16.391Z,15.73
2018-02-17T01:38:44.416Z,15.27
2018-02-17T01:41:12.350Z,15.30
2018-02-17T01:43:40.283Z,15.10
2018-02-17T01:46:08.256Z,15.03
2018-02-17T01:48:36.203Z,16.43
2018-02-17T01:51:04.207Z,15.93
2018-02-17T01:53:32.233Z,13.90
2018-02-17T01:56:00.201Z,12.03
2018-02-17T01:58:28.177Z,13.50
2018-02-17T02:00:56.110Z,10.90
2018-02-17T02:03:24.055Z,11.60
2018-02-17T02:05:51.974Z,10.20
2018-02-17T02:08:19.913Z,12.13
2018-02-17T02:10:47.887Z,9.50
2018-02-17T02:13:16.239Z,10.40
2018-02-17T02:15:44.167Z,9.70
2018-02-17T02:18:12.100Z,10.80
2018-02-17T02:20:40.060Z,10.10
2018-02-17T02:23:08.031Z,9.43
2018-02-17T02:25:36.059Z,10.00
2018-02-17T02:28:04.005Z,8.23
2018-02-17T02:30:32.003Z,7.90
2018-02-17T02:32:59.943Z,8.60
2018-02-17T02:35:27.903Z,15.87
2018-02-17T02:37:55.924Z,14.13
2018-02-17T02:40:24.002Z,9.90
2018-02-17T02:42:51.906Z,8.47
2018-02-17T02:45:21.185Z,9.77
2018-02-17T02:47:49.158Z,9.80
2018-02-17T02:50:17.174Z,10.77
2018-02-17T02:52:45.116Z,9.60
2018-02-17T02:55:13.074Z,9.13
2018-02-17T02:57:41.015Z,9.57
2018-02-17T03:00:08.968Z,9.47
2018-02-17T03:02:36.983Z,8.90
2018-02-17T03:05:04.948Z,7.70
2018-02-17T03:07:32.902Z,8.30
2018-02-17T03:10:00.886Z,9.50
2018-02-17T03:12:28.778Z,9.93
2018-02-17T03:14:57.225Z,10.23
2018-02-17T03:17:25.199Z,10.53
2018-02-17T03:19:53.203Z,14.17
2018-02-17T03:22:21.096Z,12.03
2018-02-17T03:24:48.983Z,10.73
2018-02-17T03:27:16.902Z,13.70
2018-02-17T03:29:44.904Z,11.27
2018-02-17T03:32:12.886Z,10.80
2018-02-17T03:34:40.866Z,13.27
2018-02-17T03:37:08.803Z,11.10
2018-02-17T03:39:36.708Z,12.60
2018-02-17T03:42:04.682Z,11.00
2018-02-17T03:44:32.655Z,12.50
2018-02-17T03:47:00.565Z,11.27
2018-02-17T03:49:28.486Z,10.97
2018-02-17T03:51:56.430Z,11.90
2018-02-17T03:54:24.422Z,11.60
2018-02-17T03:56:52.325Z,12.10
2018-02-17T03:59:20.290Z,12.23
2018-02-17T04:01:48.233Z,12.50
2018-02-17T04:04:16.223Z,14.77
2018-02-17T04:06:44.214Z,16.30
2018-02-17T04:09:12.124Z,21.77
2018-02-17T04:11:40.098Z,18.40
2018-02-17T04:14:08.019Z,20.67
2018-02-17T04:16:36.398Z,22.47
2018-02-17T04:19:04.350Z,20.30
2018-02-17T04:21:32.288Z,18.07
2018-02-17T04:24:00.310Z,17.70
2018-02-17T04:26:28.290Z,16.33
2018-02-17T04:28:56.250Z,18.70
2018-02-17T04:31:24.153Z,17.47
2018-02-17T04:33:52.116Z,19.20
2018-02-17T04:36:20.085Z,23.73
2018-02-17T04:38:48.049Z,19.10
2018-02-17T04:44:45.375Z,21.93
2018-02-17T04:50:25.375Z,36.73
2018-02-17T04:56:14.083Z,24.53
2018-02-17T04:58:42.153Z,22.60
2018-02-17T05:01:12.002Z,21.80
2018-02-17T05:03:58.933Z,25.37
2018-02-17T05:06:42.035Z,19.00
2018-02-17T05:09:10.335Z,16.37
2018-02-17T05:11:38.705Z,18.00
2018-02-17T05:17:18.400Z,16.60
2018-02-17T05:19:51.938Z,16.20
2018-02-17T05:22:34.152Z,15.10
2018-02-17T05:25:07.350Z,17.27
2018-02-17T05:27:38.490Z,24.23
2018-02-17T05:30:09.110Z,43.70
2018-02-17T05:35:46.268Z,33.67
2018-02-17T05:38:15.046Z,28.10
2018-02-17T05:40:43.817Z,21.53
2018-02-17T05:43:12.918Z,23.83
2018-02-17T05:45:45.683Z,27.67
2018-02-17T05:48:13.755Z,41.17
2018-02-17T05:50:41.756Z,46.43
2018-02-17T05:53:09.804Z,43.60
2018-02-17T05:55:37.844Z,49.97
2018-02-17T05:58:06.340Z,70.97
2018-02-17T06:00:34.827Z,62.63
2018-02-17T06:03:03.307Z,74.83
2018-02-17T06:05:31.575Z,82.27
2018-02-17T06:07:59.962Z,86.73
2018-02-17T06:10:28.268Z,75.87
2018-02-17T06:12:56.705Z,67.67
2018-02-17T06:15:24.618Z,55.10
2018-02-17T06:17:53.257Z,60.60
2018-02-17T06:20:21.273Z,59.37
2018-02-17T06:22:49.232Z,69.13
2018-02-17T06:25:17.266Z,72.00
2018-02-17T06:27:45.185Z,71.20
2018-02-17T06:30:13.191Z,66.13
2018-02-17T06:32:41.148Z,84.33
2018-02-17T06:35:09.102Z,71.33
2018-02-17T06:37:37.131Z,62.57
2018-02-17T06:40:05.106Z,53.50
2018-02-17T06:42:33.355Z,40.33
2018-02-17T06:45:01.916Z,38.57
2018-02-17T06:47:30.119Z,37.90
2018-02-17T06:49:58.089Z,33.20
2018-02-17T06:52:26.250Z,33.07
2018-02-17T06:54:54.625Z,32.53
2018-02-17T06:57:23.109Z,32.87
2018-02-17T06:59:51.315Z,54.60
2018-02-17T07:02:19.688Z,31.73
2018-02-17T07:04:47.739Z,31.07
2018-02-17T07:07:15.661Z,48.53
2018-02-17T07:09:44.877Z,29.63
2018-02-17T07:12:12.918Z,57.73
2018-02-17T07:14:40.937Z,44.03
2018-02-17T07:17:08.987Z,46.83
2018-02-17T07:19:37.279Z,48.70
2018-02-17T07:22:05.491Z,41.87
2018-02-17T07:24:33.643Z,40.83
2018-02-17T07:27:01.948Z,37.83
2018-02-17T07:29:30.121Z,55.07
2018-02-17T07:31:58.497Z,68.43
2018-02-17T07:34:27.033Z,36.67
2018-02-17T07:36:56.192Z,26.43
2018-02-17T07:39:25.140Z,28.40
2018-02-17T07:41:53.511Z,23.33
2018-02-17T07:44:21.880Z,27.60
2018-02-17T07:46:50.025Z,24.03
2018-02-17T07:49:18.526Z,20.37
2018-02-17T07:51:47.531Z,28.37
2018-02-17T07:54:15.818Z,25.80
2018-02-17T07:56:44.694Z,27.10
2018-02-17T07:59:12.935Z,39.17
2018-02-17T08:01:41.398Z,36.97
2018-02-17T08:04:10.239Z,64.60
2018-02-17T08:06:38.286Z,24.03
2018-02-17T08:09:06.434Z,23.67
2018-02-17T08:11:34.759Z,23.63
2018-02-17T08:14:03.136Z,31.63
2018-02-17T08:16:31.406Z,31.40
2018-02-17T08:18:59.680Z,33.13
2018-02-17T08:21:27.875Z,61.93
2018-02-17T08:23:56.257Z,45.60
2018-02-17T08:26:24.326Z,27.67
2018-02-17T08:28:52.366Z,24.57
2018-02-17T08:31:20.334Z,22.67
2018-02-17T08:33:48.262Z,20.50
2018-02-17T08:36:17.293Z,21.70
2018-02-17T08:38:45.230Z,22.40
2018-02-17T08:41:13.201Z,20.63
2018-02-17T08:43:41.165Z,27.00
2018-02-17T08:46:09.182Z,22.90
2018-02-17T08:48:37.115Z,25.67
2018-02-17T08:51:05.093Z,27.67
2018-02-17T08:53:33.168Z,22.07
2018-02-17T08:56:01.204Z,24.17
2018-02-17T08:58:29.738Z,22.63
2018-02-17T09:00:58.063Z,24.70
2018-02-17T09:03:26.066Z,21.97
2018-02-17T09:05:54.461Z,67.83
2018-02-17T09:08:22.519Z,34.50
2018-02-17T09:10:50.588Z,25.10
2018-02-17T09:13:18.567Z,18.50
2018-02-17T09:15:46.551Z,17.27
2018-02-17T09:18:15.124Z,14.73
2018-02-17T09:20:43.113Z,15.90
2018-02-17T09:23:11.085Z,14.40
2018-02-17T09:25:39.082Z,21.47
2018-02-17T09:28:07.123Z,19.37
2018-02-17T09:30:35.207Z,14.90
2018-02-17T09:33:03.243Z,18.47
2018-02-17T09:35:31.864Z,19.70
2018-02-17T09:37:59.901Z,14.73
2018-02-17T09:40:27.896Z,11.00
2018-02-17T09:42:55.869Z,13.10
2018-02-17T09:45:23.868Z,18.10
2018-02-17T09:47:51.831Z,12.83
2018-02-17T09:50:19.752Z,8.40
2018-02-17T09:52:47.811Z,8.80
2018-02-17T09:55:15.765Z,9.60
2018-02-17T09:57:43.689Z,10.03
2018-02-17T10:00:11.691Z,16.33
2018-02-17T10:02:39.654Z,18.67
2018-02-17T10:05:07.571Z,13.60
2018-02-17T10:07:36.040Z,12.67
2018-02-17T10:10:04.041Z,8.20
2018-02-17T10:12:32.012Z,7.90
2018-02-17T10:15:00.015Z,11.20
2018-02-17T10:17:27.978Z,7.80
2018-02-17T10:19:55.959Z,11.10
2018-02-17T10:22:23.941Z,7.97
2018-02-17T10:24:51.919Z,8.10
2018-02-17T10:27:19.859Z,10.07
2018-02-17T10:29:47.886Z,9.80
2018-02-17T10:32:15.818Z,9.07
2018-02-17T10:34:43.869Z,11.20
2018-02-17T10:37:11.803Z,6.70
2018-02-17T10:39:39.746Z,7.30
2018-02-17T10:42:07.734Z,6.97
2018-02-17T10:44:35.680Z,8.57
2018-02-17T10:47:03.611Z,7.00
2018-02-17T10:49:31.506Z,4.20
2018-02-17T10:51:59.461Z,4.23
2018-02-17T10:54:27.417Z,6.03
2018-02-17T10:56:55.338Z,6.73
2018-02-17T10:59:23.299Z,5.50
2018-02-17T11:01:51.281Z,9.60
2018-02-17T11:04:19.246Z,44.23
2018-02-17T11:06:47.218Z,22.13
2018-02-17T11:09:15.458Z,12.50
2018-02-17T11:11:43.414Z,11.63
2018-02-17T11:14:11.362Z,7.80
2018-02-17T11:16:39.352Z,11.70
2018-02-17T11:19:07.397Z,7.23
2018-02-17T11:21:35.430Z,7.63
2018-02-17T11:24:03.330Z,10.57
2018-02-17T11:26:31.325Z,11.50
2018-02-17T11:28:59.275Z,6.17
2018-02-17T11:31:27.285Z,6.90
2018-02-17T11:33:55.235Z,9.70
2018-02-17T11:36:23.131Z,7.57
2018-02-17T11:38:51.105Z,13.97
2018-02-17T11:41:19.191Z,7.80
2018-02-17T11:43:47.348Z,11.27
2018-02-17T11:46:15.514Z,5.30
2018-02-17T11:48:43.646Z,5.53
2018-02-17T11:51:11.840Z,6.97
2018-02-17T11:53:39.976Z,5.63
2018-02-17T11:56:08.069Z,10.30
2018-02-17T11:58:36.230Z,5.33
2018-02-17T12:01:04.395Z,6.90
2018-02-17T12:03:32.534Z,6.70
2018-02-17T12:06:00.713Z,6.43
2018-02-17T12:08:28.948Z,5.70
2018-02-17T12:10:57.564Z,6.70
2018-02-17T12:13:25.754Z,7.90
2018-02-17T12:15:53.833Z,5.70
2018-02-17T12:18:22.153Z,6.30
2018-02-17T12:20:50.275Z,4.87
2018-02-17T12:23:18.422Z,6.00
2018-02-17T12:25:46.627Z,16.27
2018-02-17T12:28:14.829Z,10.93
2018-02-17T12:30:43.017Z,7.30
2018-02-17T12:33:11.196Z,6.97
2018-02-17T12:35:39.464Z,6.80
2018-02-17T12:38:07.625Z,5.67
2018-02-17T12:40:35.645Z,6.30
2018-02-17T12:43:03.603Z,6.97
2018-02-17T12:45:31.541Z,8.53
2018-02-17T12:47:59.438Z,7.07
2018-02-17T12:50:27.418Z,5.00
2018-02-17T12:52:55.396Z,4.77
2018-02-17T12:55:23.369Z,4.73
2018-02-17T12:57:51.283Z,7.70
2018-02-17T13:00:19.291Z,8.03
2018-02-17T13:02:47.299Z,6.13
2018-02-17T13:05:15.324Z,5.87
2018-02-17T13:07:43.386Z,4.37
2018-02-17T13:10:11.377Z,5.30
2018-02-17T13:12:39.903Z,11.40
2018-02-17T13:15:07.883Z,22.30
2018-02-17T13:17:35.810Z,7.93
2018-02-17T13:20:03.782Z,4.00
2018-02-17T13:22:31.706Z,4.27
2018-02-17T13:24:59.695Z,7.43
2018-02-17T13:27:27.634Z,5.77
2018-02-17T13:29:55.639Z,13.97
2018-02-17T13:32:23.631Z,18.90
2018-02-17T13:34:51.615Z,6.97
2018-02-17T13:37:19.627Z,4.10
2018-02-17T13:39:47.560Z,6.30
2018-02-17T13:42:15.527Z,5.70
2018-02-17T13:44:43.475Z,7.93
2018-02-17T13:47:11.435Z,7.63
2018-02-17T13:49:39.344Z,10.47
2018-02-17T13:52:07.292Z,8.27
2018-02-17T13:54:35.328Z,14.63
2018-02-17T13:57:03.389Z,9.20
2018-02-17T13:59:31.357Z,11.63
2018-02-17T14:01:59.357Z,6.27
2018-02-17T14:04:27.347Z,5.77
2018-02-17T14:06:55.346Z,15.10
2018-02-17T14:09:23.264Z,15.23
2018-02-17T14:11:51.185Z,9.10
2018-02-17T14:14:19.722Z,8.00
2018-02-17T14:16:47.672Z,10.77
2018-02-17T14:19:15.649Z,10.80
2018-02-17T14:21:43.629Z,9.07
2018-02-17T14:24:11.591Z,8.03
2018-02-17T14:26:39.565Z,8.87
2018-02-17T14:29:07.616Z,8.63
2018-02-17T14:31:35.653Z,12.00
2018-02-17T14:34:03.641Z,16.13
2018-02-17T14:36:31.554Z,32.73
2018-02-17T14:38:59.540Z,24.80
2018-02-17T14:41:27.519Z,11.50
2018-02-17T14:43:55.425Z,13.80
2018-02-17T14:46:23.435Z,18.13
2018-02-17T14:48:51.481Z,11.43
2018-02-17T14:51:19.604Z,17.73
2018-02-17T14:53:47.651Z,11.77
2018-02-17T14:56:15.626Z,14.77
2018-02-17T14:58:43.671Z,23.07
2018-02-17T15:01:11.640Z,19.97
2018-02-17T15:03:39.618Z,26.37
2018-02-17T15:06:07.536Z,31.10
2018-02-17T15:08:35.525Z,27.40
2018-02-17T15:11:03.513Z,28.80
2018-02-17T15:13:31.383Z,87.37
2018-02-17T15:15:59.904Z,45.67
2018-02-17T15:18:27.862Z,51.50
2018-02-17T15:20:55.864Z,55.47
2018-02-17T15:23:23.875Z,51.97
2018-02-17T15:25:51.869Z,42.77
2018-02-17T15:28:19.798Z,37.43
2018-02-17T15:30:47.780Z,39.27
2018-02-17T15:33:15.691Z,43.40
2018-02-17T15:35:43.678Z,51.60
2018-02-17T15:38:11.539Z,41.57
2018-02-17T15:40:39.542Z,43.30
2018-02-17T15:43:07.470Z,58.57
2018-02-17T15:45:35.507Z,53.70
2018-02-17T15:48:03.435Z,44.80
2018-02-17T15:50:31.333Z,37.47
2018-02-17T15:52:59.358Z,40.43
2018-02-17T15:55:27.353Z,35.30
2018-02-17T15:57:55.404Z,29.23
2018-02-17T16:00:23.434Z,15.13
2018-02-17T16:02:51.403Z,12.40
2018-02-17T16:05:19.450Z,13.23
2018-02-17T16:07:47.396Z,13.63
2018-02-17T16:10:15.414Z,15.53
2018-02-17T16:12:43.421Z,16.87
2018-02-17T16:15:11.484Z,17.60
2018-02-17T16:17:39.542Z,24.97
2018-02-17T16:20:07.538Z,34.90
2018-02-17T16:22:35.601Z,39.40
2018-02-17T16:25:03.530Z,44.30
2018-02-17T16:27:31.507Z,34.97
2018-02-17T16:29:59.484Z,35.87
2018-02-17T16:32:27.506Z,32.30
2018-02-17T16:34:55.476Z,38.30
2018-02-17T16:37:23.414Z,35.10
2018-02-17T16:39:51.421Z,29.37
2018-02-17T16:42:19.410Z,27.03
2018-02-17T16:44:47.377Z,28.10
2018-02-17T16:47:15.406Z,28.17
2018-02-17T16:49:43.339Z,30.77
2018-02-17T16:52:11.326Z,63.23
2018-02-17T16:54:39.256Z,28.03
2018-02-17T16:57:07.197Z,30.83
2018-02-17T16:59:35.138Z,25.07
2018-02-17T17:02:03.043Z,25.30
2018-02-17T17:04:31.021Z,30.50
2018-02-17T17:06:58.999Z,34.07
2018-02-17T17:09:26.973Z,34.60
2018-02-17T17:11:54.989Z,35.77
2018-02-17T17:14:22.956Z,37.97
2018-02-17T17:16:50.907Z,39.17
2018-02-17T17:19:19.116Z,37.73
2018-02-17T17:21:47.128Z,35.33
2018-02-17T17:24:15.123Z,33.33
2018-02-17T17:26:43.209Z,33.80
2018-02-17T17:29:11.180Z,35.80
2018-02-17T17:31:39.214Z,30.93
2018-02-17T17:34:07.134Z,35.07
2018-02-17T17:36:35.094Z,31.13
2018-02-17T17:39:03.109Z,37.90
2018-02-17T17:41:31.074Z,39.00
2018-02-17T17:44:00.314Z,34.10
2018-02-17T17:46:28.332Z,57.73
2018-02-17T17:48:56.257Z,53.03
2018-02-17T17:51:24.264Z,42.97
2018-02-17T17:53:52.278Z,45.63
2018-02-17T17:56:20.274Z,39.43
2018-02-17T17:58:48.226Z,44.00
2018-02-17T18:01:16.202Z,42.20
2018-02-17T18:03:44.163Z,46.10
2018-02-17T18:06:12.160Z,44.13
2018-02-17T18:08:40.191Z,56.60
2018-02-17T18:11:08.197Z,49.83
2018-02-17T18:13:36.413Z,67.87
2018-02-17T18:16:04.427Z,81.57
2018-02-17T18:18:32.459Z,60.73
2018-02-17T18:21:00.869Z,55.20
2018-02-17T18:23:29.002Z,55.47
2018-02-17T18:25:58.182Z,60.40
2018-02-17T18:28:26.195Z,58.60
2018-02-17T18:30:54.228Z,69.57
2018-02-17T18:33:22.266Z,64.10
2018-02-17T18:35:50.275Z,71.13
2018-02-17T18:38:18.214Z,88.80
2018-02-17T18:40:46.245Z,95.63
2018-02-17T18:43:14.224Z,124.10
2018-02-17T18:45:42.173Z,101.43
2018-02-17T18:48:10.161Z,89.20
2018-02-17T18:50:38.179Z,88.20
2018-02-17T18:53:06.127Z,99.27
2018-02-17T18:55:34.109Z,86.07
2018-02-17T18:58:02.100Z,78.30
2018-02-17T19:00:30.055Z,77.47
2018-02-17T19:02:58.054Z,73.67
2018-02-17T19:05:26.107Z,71.07
2018-02-17T19:07:55.016Z,69.87
2018-02-17T19:10:23.088Z,53.50
2018-02-17T19:12:51.183Z,73.27
2018-02-17T19:15:19.461Z,82.53
2018-02-17T19:17:47.507Z,91.10
2018-02-17T19:20:15.437Z,70.70
2018-02-17T19:22:43.573Z,62.50
2018-02-17T19:25:11.535Z,70.07
2018-02-17T19:27:39.550Z,69.07
2018-02-17T19:30:07.578Z,74.40
2018-02-17T19:32:36.237Z,71.70
2018-02-17T19:35:04.269Z,56.00
2018-02-17T19:37:32.307Z,55.90
2018-02-17T19:40:00.775Z,50.60
2018-02-17T19:42:28.801Z,55.40
2018-02-17T19:44:56.925Z,57.30
2018-02-17T19:47:24.988Z,55.47
2018-02-17T19:49:54.511Z,59.80
2018-02-17T19:52:22.571Z,54.13
2018-02-17T19:54:50.467Z,56.23
2018-02-17T19:57:18.660Z,59.23
2018-02-17T19:59:46.643Z,56.60
2018-02-17T20:02:14.632Z,56.07
2018-02-17T20:04:42.612Z,49.93
2018-02-17T20:07:10.677Z,56.97
2018-02-17T20:09:38.732Z,55.07
2018-02-17T20:12:06.742Z,54.63
2018-02-17T20:14:34.753Z,51.43
2018-02-17T20:17:02.961Z,51.80
2018-02-17T20:19:30.919Z,47.20
2018-02-17T20:21:58.928Z,45.13
2018-02-17T20:24:27.277Z,40.47
2018-02-17T20:26:56.358Z,40.77
2018-02-17T20:29:24.517Z,39.80
2018-02-17T20:31:52.512Z,36.80
2018-02-17T20:34:20.547Z,32.93
2018-02-17T20:36:48.660Z,38.80
2018-02-17T20:39:16.675Z,34.87
2018-02-17T20:41:44.595Z,30.80
2018-02-17T20:44:12.574Z,32.40
2018-02-17T20:46:40.506Z,32.90
2018-02-17T20:49:08.498Z,31.23
2018-02-17T20:51:37.439Z,34.37
2018-02-17T20:54:05.439Z,34.17
2018-02-17T20:56:33.377Z,29.53
2018-02-17T20:59:01.285Z,34.87
2018-02-17T21:01:29.329Z,33.57
2018-02-17T21:03:57.339Z,27.23
2018-02-17T21:06:25.330Z,30.70
2018-02-17T21:08:53.284Z,34.00
2018-02-17T21:11:21.336Z,36.80
2018-02-17T21:13:49.258Z,41.00
2018-02-17T21:16:17.239Z,49.67
2018-02-17T21:18:45.423Z,55.60
2018-02-17T21:21:13.441Z,56.90
2018-02-17T21:23:41.446Z,57.70
2018-02-17T21:26:10.162Z,49.43
2018-02-17T21:28:38.245Z,45.93
2018-02-17T21:31:06.256Z,47.30
2018-02-17T21:33:34.181Z,47.10
2018-02-17T21:36:02.109Z,41.20
2018-02-17T21:38:30.126Z,38.30
2018-02-17T21:40:58.767Z,31.40
2018-02-17T21:43:26.801Z,32.33
2018-02-17T21:45:54.733Z,29.80
2018-02-17T21:48:22.668Z,33.90
2018-02-17T21:50:50.648Z,33.10
2018-02-17T21:53:18.610Z,32.20
2018-02-17T21:55:46.571Z,36.63
2018-02-17T21:58:14.562Z,33.50
2018-02-17T22:00:42.537Z,32.87
2018-02-17T22:03:10.497Z,33.60
2018-02-17T22:05:38.447Z,32.17
2018-02-17T22:08:06.366Z,34.43
2018-02-17T22:10:34.341Z,40.47
2018-02-17T22:13:02.263Z,32.77
2018-02-17T22:15:30.159Z,37.20
2018-02-17T22:17:58.095Z,33.17
2018-02-17T22:20:26.251Z,33.53
2018-02-17T22:22:54.284Z,33.60
2018-02-17T22:25:22.229Z,30.80
2018-02-17T22:27:50.609Z,35.60
2018-02-17T22:30:18.490Z,39.20
2018-02-17T22:32:46.422Z,52.90
2018-02-17T22:35:14.395Z,45.17
2018-02-17T22:37:42.385Z,51.60
2018-02-17T22:40:10.390Z,45.87
2018-02-17T22:42:38.358Z,45.63
2018-02-17T22:45:06.320Z,44.73
2018-02-17T22:47:34.372Z,44.07
2018-02-17T22:50:02.297Z,43.80
2018-02-17T22:52:30.260Z,40.57
2018-02-17T22:54:58.218Z,39.37
2018-02-17T22:57:26.146Z,39.43
2018-02-17T22:59:54.131Z,40.47
2018-02-17T23:02:22.072Z,38.57
2018-02-17T23:04:49.993Z,38.80
2018-02-17T23:07:17.966Z,38.83
2018-02-17T23:09:45.975Z,31.33
2018-02-17T23:12:13.889Z,30.60
2018-02-17T23:14:41.922Z,30.10
2018-02-17T23:17:09.907Z,32.40
2018-02-17T23:19:38.034Z,31.23
2018-02-17T23:22:06.212Z,32.07
2018-02-17T23:24:34.222Z,29.30
2018-02-17T23:27:02.218Z,30.40
2018-02-17T23:29:30.435Z,33.20
2018-02-17T23:31:58.611Z,34.60
2018-02-17T23:34:26.592Z,34.00
2018-02-17T23:36:54.545Z,33.77
2018-02-17T23:39:22.489Z,34.77
2018-02-17T23:41:50.438Z,35.00
2018-02-17T23:44:18.442Z,34.30
2018-02-17T23:46:46.418Z,35.83
2018-02-17T23:49:14.378Z,32.40
2018-02-17T23:51:42.327Z,34.20
2018-02-17T23:54:10.302Z,34.70
2018-02-17T23:56:38.243Z,34.70
2018-02-17T23:59:06.181Z,36.83
